createdAt,value
2024-03-07T00:00:55.188Z,71.03
2024-03-07T00:02:08.371Z,70.83
2024-03-07T00:03:11.261Z,70.75
2024-03-07T00:04:14.302Z,71.09
2024-03-07T00:05:21.283Z,71.19
2024-03-07T00:06:24.148Z,71.10
2024-03-07T00:07:26.964Z,71.31
2024-03-07T00:08:32.777Z,71.02
2024-03-07T00:09:37.418Z,71.30
2024-03-07T00:10:40.315Z,71.38
2024-03-07T00:11:43.260Z,71.55
2024-03-07T00:12:46.872Z,71.58
2024-03-07T00:13:50.100Z,71.38
2024-03-07T00:14:53.051Z,71.48
2024-03-07T00:15:56.051Z,71.46
2024-03-07T00:17:02.530Z,71.42
2024-03-07T00:18:07.177Z,71.34
2024-03-07T00:19:10.094Z,71.68
2024-03-07T00:20:17.275Z,71.65
2024-03-07T00:21:20.363Z,71.70
2024-03-07T00:22:23.967Z,71.59
2024-03-07T00:23:28.022Z,71.67
2024-03-07T00:24:30.860Z,71.58
2024-03-07T00:25:33.739Z,71.72
2024-03-07T00:26:37.501Z,71.69
2024-03-07T00:27:40.424Z,71.64
2024-03-07T00:28:43.728Z,71.80
2024-03-07T00:29:53.946Z,71.88
2024-03-07T00:30:56.959Z,71.97
2024-03-07T00:31:59.904Z,72.03
2024-03-07T00:33:02.956Z,72.18
2024-03-07T00:34:13.093Z,71.98
2024-03-07T00:35:23.062Z,72.04
2024-03-07T00:36:26.774Z,72.10
2024-03-07T00:37:30.117Z,72.09
2024-03-07T00:38:32.996Z,72.05
2024-03-07T00:39:36.063Z,71.93
2024-03-07T00:40:39.537Z,72.07
2024-03-07T00:41:42.953Z,72.28
2024-03-07T00:42:45.950Z,72.23
2024-03-07T00:43:48.845Z,72.31
2024-03-07T00:44:51.845Z,72.30
2024-03-07T00:45:55.461Z,72.37
2024-03-07T00:46:58.463Z,72.35
2024-03-07T00:48:02.645Z,72.46
2024-03-07T00:49:06.352Z,72.47
2024-03-07T00:50:10.089Z,72.63
2024-03-07T00:51:13.182Z,72.28
2024-03-07T00:52:16.687Z,72.46
2024-03-07T00:53:19.574Z,72.44
2024-03-07T00:54:22.558Z,72.60
2024-03-07T00:55:25.420Z,72.40
2024-03-07T00:56:29.735Z,72.12
2024-03-07T00:57:32.678Z,72.48
2024-03-07T00:58:36.569Z,72.63
2024-03-07T00:59:40.148Z,72.73
2024-03-07T01:00:44.188Z,72.93
2024-03-07T01:01:47.102Z,72.97
2024-03-07T01:02:50.198Z,72.71
2024-03-07T01:03:53.147Z,72.85
2024-03-07T01:04:56.164Z,72.89
2024-03-07T01:05:59.130Z,72.62
2024-03-07T01:07:02.466Z,72.70
2024-03-07T01:08:06.838Z,72.78
2024-03-07T01:09:15.231Z,72.80
2024-03-07T01:10:18.271Z,72.94
2024-03-07T01:11:21.434Z,72.68
2024-03-07T01:12:28.441Z,72.87
2024-03-07T01:13:31.406Z,73.03
2024-03-07T01:14:34.527Z,73.13
2024-03-07T01:15:37.578Z,73.29
2024-03-07T01:16:40.635Z,73.15
2024-03-07T01:17:43.578Z,73.03
2024-03-07T01:18:46.638Z,73.29
2024-03-07T01:19:49.647Z,73.02
2024-03-07T01:20:52.684Z,73.17
2024-03-07T01:21:55.606Z,73.10
2024-03-07T01:22:58.524Z,73.10
2024-03-07T01:24:02.593Z,73.07
2024-03-07T01:25:06.237Z,73.21
2024-03-07T01:26:09.624Z,73.13
2024-03-07T01:27:12.542Z,72.96
2024-03-07T01:28:16.023Z,73.00
2024-03-07T01:29:19.140Z,73.03
2024-03-07T01:30:24.472Z,73.24
2024-03-07T01:31:27.386Z,73.46
2024-03-07T01:32:30.579Z,73.46
2024-03-07T01:33:33.620Z,73.35
2024-03-07T01:34:36.569Z,73.37
2024-03-07T01:35:39.695Z,73.23
2024-03-07T01:36:43.004Z,73.40
2024-03-07T01:37:45.854Z,73.41
2024-03-07T01:38:48.933Z,73.26
2024-03-07T01:39:52.351Z,73.28
2024-03-07T01:40:56.020Z,73.33
2024-03-07T01:41:59.009Z,73.43
2024-03-07T01:43:06.681Z,73.32
2024-03-07T01:44:10.114Z,73.29
2024-03-07T01:45:12.994Z,73.31
2024-03-07T01:46:16.020Z,73.43
2024-03-07T01:47:19.360Z,73.10
2024-03-07T01:48:28.026Z,73.06
2024-03-07T01:49:32.083Z,73.47
2024-03-07T01:50:39.617Z,73.45
2024-03-07T01:51:44.565Z,73.36
2024-03-07T01:52:47.488Z,73.45
2024-03-07T01:53:50.557Z,73.36
2024-03-07T01:54:53.784Z,73.32
2024-03-07T01:55:58.489Z,73.21
2024-03-07T01:57:03.126Z,73.14
2024-03-07T01:58:11.926Z,73.16
2024-03-07T01:59:16.444Z,73.06
2024-03-07T02:00:19.699Z,73.01
2024-03-07T02:01:23.062Z,73.06
2024-03-07T02:02:26.143Z,73.05
2024-03-07T02:03:29.205Z,72.86
2024-03-07T02:04:32.339Z,72.97
2024-03-07T02:05:35.408Z,72.99
2024-03-07T02:06:38.729Z,73.06
2024-03-07T02:07:41.820Z,73.08
2024-03-07T02:08:44.695Z,72.98
2024-03-07T02:09:47.646Z,73.04
2024-03-07T02:10:50.762Z,72.89
2024-03-07T02:11:53.935Z,72.95
2024-03-07T02:12:57.036Z,72.69
2024-03-07T02:14:00.343Z,72.63
2024-03-07T02:15:03.961Z,72.78
2024-03-07T02:16:08.607Z,72.83
2024-03-07T02:17:11.670Z,72.65
2024-03-07T02:18:15.280Z,72.82
2024-03-07T02:19:19.041Z,72.78
2024-03-07T02:20:22.097Z,72.69
2024-03-07T02:21:24.964Z,72.63
2024-03-07T02:22:28.390Z,72.67
2024-03-07T02:23:31.227Z,72.77
2024-03-07T02:24:34.091Z,72.70
2024-03-07T02:25:38.631Z,72.47
2024-03-07T02:26:41.623Z,72.19
2024-03-07T02:27:46.598Z,72.27
2024-03-07T02:28:50.010Z,72.03
2024-03-07T02:29:53.059Z,72.12
2024-03-07T02:30:55.970Z,72.10
2024-03-07T02:31:58.842Z,72.12
2024-03-07T02:33:08.480Z,71.92
2024-03-07T02:34:11.710Z,71.86
2024-03-07T02:35:16.665Z,71.98
2024-03-07T02:36:19.772Z,71.97
2024-03-07T02:37:22.628Z,72.10
2024-03-07T02:38:25.694Z,72.01
2024-03-07T02:39:28.664Z,72.15
2024-03-07T02:40:32.538Z,72.24
2024-03-07T02:41:35.525Z,71.79
2024-03-07T02:42:38.457Z,71.59
2024-03-07T02:43:41.554Z,71.61
2024-03-07T02:44:45.723Z,71.92
2024-03-07T02:45:48.592Z,71.75
2024-03-07T02:46:51.456Z,71.84
2024-03-07T02:47:55.366Z,71.61
2024-03-07T02:48:58.710Z,71.79
2024-03-07T02:50:01.591Z,71.79
2024-03-07T02:51:06.945Z,71.22
2024-03-07T02:52:10.039Z,70.92
2024-03-07T02:53:12.922Z,70.86
2024-03-07T02:54:15.870Z,70.43
2024-03-07T02:55:20.040Z,70.38
2024-03-07T02:56:23.031Z,70.15
2024-03-07T02:57:25.953Z,70.09
2024-03-07T02:58:28.810Z,70.20
2024-03-07T02:59:31.802Z,69.91
2024-03-07T03:00:35.971Z,69.90
2024-03-07T03:01:38.854Z,69.40
2024-03-07T03:02:42.676Z,69.19
2024-03-07T03:03:45.828Z,69.36
2024-03-07T03:04:48.924Z,69.33
2024-03-07T03:05:51.994Z,69.40
2024-03-07T03:06:54.898Z,69.24
2024-03-07T03:07:57.783Z,69.12
2024-03-07T03:09:01.203Z,68.63
2024-03-07T03:10:08.623Z,68.39
2024-03-07T03:11:14.975Z,68.29
2024-03-07T03:12:18.345Z,68.38
2024-03-07T03:13:21.737Z,67.77
2024-03-07T03:14:24.718Z,67.59
2024-03-07T03:15:27.939Z,67.66
2024-03-07T03:16:43.464Z,67.75
2024-03-07T03:17:54.056Z,67.61
2024-03-07T03:18:57.278Z,67.38
2024-03-07T03:20:00.228Z,67.75
2024-03-07T03:21:04.269Z,67.46
2024-03-07T03:22:10.111Z,67.61
2024-03-07T03:23:20.429Z,67.52
2024-03-07T03:24:24.890Z,67.54
2024-03-07T03:25:27.910Z,67.45
2024-03-07T03:26:32.618Z,67.62
2024-03-07T03:27:35.527Z,67.66
2024-03-07T03:28:38.492Z,67.45
2024-03-07T03:29:41.800Z,67.41
2024-03-07T03:30:45.119Z,67.41
2024-03-07T03:31:48.033Z,67.58
2024-03-07T03:32:51.065Z,67.26
2024-03-07T03:33:54.075Z,67.14
2024-03-07T03:34:57.163Z,67.51
2024-03-07T03:36:00.298Z,67.53
2024-03-07T03:37:03.289Z,67.65
2024-03-07T03:38:08.139Z,67.48
2024-03-07T03:39:14.360Z,67.61
2024-03-07T03:40:17.397Z,67.42
2024-03-07T03:41:20.536Z,67.61
2024-03-07T03:42:23.847Z,67.51
2024-03-07T03:43:26.670Z,67.41
2024-03-07T03:44:29.577Z,67.53
2024-03-07T03:45:35.042Z,67.27
2024-03-07T03:46:38.043Z,67.21
2024-03-07T03:47:42.483Z,67.36
2024-03-07T03:48:45.386Z,67.37
2024-03-07T03:49:48.376Z,66.91
2024-03-07T03:50:51.267Z,66.93
2024-03-07T03:51:54.390Z,66.96
2024-03-07T03:52:58.512Z,67.14
2024-03-07T03:54:01.470Z,66.83
2024-03-07T03:55:06.732Z,67.01
2024-03-07T03:56:13.231Z,66.90
2024-03-07T03:57:19.788Z,66.99
2024-03-07T03:58:22.743Z,66.90
2024-03-07T03:59:25.701Z,66.77
2024-03-07T04:00:29.425Z,66.88
2024-03-07T04:01:32.393Z,66.78
2024-03-07T04:02:35.333Z,66.57
2024-03-07T04:03:38.257Z,66.50
2024-03-07T04:04:41.652Z,66.28
2024-03-07T04:05:44.658Z,66.58
2024-03-07T04:06:47.719Z,66.52
2024-03-07T04:07:50.763Z,66.69
2024-03-07T04:08:53.691Z,66.33
2024-03-07T04:09:56.777Z,66.22
2024-03-07T04:10:59.621Z,66.26
2024-03-07T04:12:02.635Z,66.20
2024-03-07T04:13:05.755Z,66.27
2024-03-07T04:14:09.293Z,66.17
2024-03-07T04:15:17.738Z,66.41
2024-03-07T04:16:21.129Z,66.39
2024-03-07T04:17:24.130Z,66.55
2024-03-07T04:18:27.820Z,66.53
2024-03-07T04:19:32.035Z,66.37
2024-03-07T04:20:34.947Z,66.36
2024-03-07T04:21:38.528Z,66.24
2024-03-07T04:22:41.704Z,66.37
2024-03-07T04:23:47.824Z,66.13
2024-03-07T04:24:54.924Z,66.15
2024-03-07T04:25:57.891Z,66.02
2024-03-07T04:27:01.653Z,66.16
2024-03-07T04:28:05.647Z,66.37
2024-03-07T04:29:12.341Z,66.14
2024-03-07T04:30:17.766Z,66.19
2024-03-07T04:31:20.991Z,66.22
2024-03-07T04:32:24.414Z,66.35
2024-03-07T04:33:27.920Z,66.34
2024-03-07T04:34:32.095Z,66.38
2024-03-07T04:35:35.119Z,66.47
2024-03-07T04:36:37.958Z,66.44
2024-03-07T04:37:42.077Z,66.42
2024-03-07T04:38:46.384Z,66.51
2024-03-07T04:39:49.594Z,66.21
2024-03-07T04:40:52.432Z,66.12
2024-03-07T04:41:58.064Z,66.17
2024-03-07T04:43:01.414Z,66.31
2024-03-07T04:44:04.402Z,66.36
2024-03-07T04:45:08.023Z,66.09
2024-03-07T04:46:11.384Z,66.22
2024-03-07T04:47:14.274Z,66.17
2024-03-07T04:48:17.391Z,66.38
2024-03-07T04:49:20.555Z,66.44
2024-03-07T04:50:23.631Z,66.36
2024-03-07T04:51:26.541Z,66.36
2024-03-07T04:52:29.558Z,66.40
2024-03-07T04:53:32.963Z,66.30
2024-03-07T04:54:35.918Z,66.47
2024-03-07T04:55:39.017Z,66.60
2024-03-07T04:56:42.319Z,66.42
2024-03-07T04:57:45.625Z,66.67
2024-03-07T04:58:50.942Z,66.52
2024-03-07T04:59:53.812Z,66.25
2024-03-07T05:00:56.863Z,66.54
2024-03-07T05:01:59.790Z,66.39
2024-03-07T05:03:03.100Z,66.39
2024-03-07T05:04:06.954Z,66.51
2024-03-07T05:05:10.299Z,66.47
2024-03-07T05:06:14.065Z,66.29
2024-03-07T05:07:16.967Z,66.16
2024-03-07T05:08:20.126Z,66.16
2024-03-07T05:09:24.072Z,66.15
2024-03-07T05:10:30.576Z,66.32
2024-03-07T05:11:37.543Z,66.17
2024-03-07T05:12:40.443Z,66.25
2024-03-07T05:13:43.642Z,66.08
2024-03-07T05:14:46.722Z,65.80
2024-03-07T05:15:51.840Z,65.84
2024-03-07T05:17:06.876Z,66.14
2024-03-07T05:18:11.043Z,66.16
2024-03-07T05:19:14.304Z,65.97
2024-03-07T05:20:17.305Z,65.95
2024-03-07T05:21:39.079Z,66.22
2024-03-07T05:22:46.174Z,66.20
2024-03-07T05:23:50.129Z,66.22
2024-03-07T05:24:53.213Z,66.38
2024-03-07T05:25:56.042Z,66.19
2024-03-07T05:26:59.829Z,66.14
2024-03-07T05:28:03.778Z,66.00
2024-03-07T05:29:09.463Z,66.09
2024-03-07T05:30:14.335Z,65.99
2024-03-07T05:31:19.402Z,65.97
2024-03-07T05:32:27.782Z,65.83
2024-03-07T05:33:31.196Z,65.92
2024-03-07T05:34:35.098Z,65.91
2024-03-07T05:35:38.262Z,66.01
2024-03-07T05:36:47.184Z,65.95
2024-03-07T05:37:51.813Z,65.88
2024-03-07T05:38:55.408Z,65.78
2024-03-07T05:39:58.546Z,65.77
2024-03-07T05:41:02.184Z,65.90
2024-03-07T05:42:05.282Z,65.90
2024-03-07T05:43:08.360Z,66.06
2024-03-07T05:44:11.427Z,65.91
2024-03-07T05:45:16.204Z,66.08
2024-03-07T05:46:19.252Z,66.15
2024-03-07T05:47:22.959Z,66.33
2024-03-07T05:48:26.211Z,66.06
2024-03-07T05:49:29.203Z,66.13
2024-03-07T05:50:32.045Z,65.98
2024-03-07T05:51:35.191Z,65.91
2024-03-07T05:52:38.024Z,66.01
2024-03-07T05:53:41.784Z,66.03
2024-03-07T05:54:45.485Z,65.94
2024-03-07T05:55:48.920Z,65.76
2024-03-07T05:56:51.995Z,65.90
2024-03-07T05:57:54.922Z,66.12
2024-03-07T05:58:57.766Z,65.96
2024-03-07T06:00:00.693Z,65.90
2024-03-07T06:01:03.932Z,65.90
2024-03-07T06:02:07.016Z,65.71
2024-03-07T06:03:10.081Z,65.90
2024-03-07T06:04:12.966Z,65.82
2024-03-07T06:05:17.413Z,65.82
2024-03-07T06:06:22.532Z,66.06
2024-03-07T06:07:25.813Z,65.76
2024-03-07T06:08:28.708Z,66.03
2024-03-07T06:09:31.700Z,65.77
2024-03-07T06:12:34.848Z,66.13
2024-03-07T06:13:37.846Z,66.12
2024-03-07T06:14:40.836Z,66.14
2024-03-07T06:15:45.771Z,66.17
2024-03-07T06:16:48.872Z,66.45
2024-03-07T06:17:52.067Z,66.39
2024-03-07T06:18:55.166Z,66.36
2024-03-07T06:19:58.067Z,66.27
2024-03-07T06:21:01.101Z,66.08
2024-03-07T06:22:07.320Z,66.17
2024-03-07T06:23:13.419Z,66.25
2024-03-07T06:24:18.861Z,66.28
2024-03-07T06:25:34.611Z,66.52
2024-03-07T06:26:50.969Z,66.18
2024-03-07T06:27:53.885Z,66.15
2024-03-07T06:28:57.354Z,66.26
2024-03-07T06:30:00.278Z,66.07
2024-03-07T06:31:08.857Z,66.21
2024-03-07T06:32:13.042Z,66.20
2024-03-07T06:33:18.435Z,66.07
2024-03-07T06:34:23.180Z,66.18
2024-03-07T06:35:26.096Z,66.34
2024-03-07T06:36:29.333Z,66.42
2024-03-07T06:37:32.764Z,66.48
2024-03-07T06:38:36.424Z,66.47
2024-03-07T06:39:39.299Z,66.52
2024-03-07T06:40:45.741Z,66.30
2024-03-07T06:41:48.714Z,66.12
2024-03-07T06:42:53.569Z,66.21
2024-03-07T06:43:56.901Z,66.49
2024-03-07T06:44:59.952Z,66.41
2024-03-07T06:46:03.395Z,66.20
2024-03-07T06:47:06.685Z,66.15
2024-03-07T06:48:09.989Z,66.24
2024-03-07T06:49:13.021Z,66.43
2024-03-07T06:50:27.380Z,66.68
2024-03-07T06:51:38.372Z,66.45
2024-03-07T06:52:41.703Z,66.63
2024-03-07T06:53:47.833Z,66.63
2024-03-07T06:54:50.793Z,66.54
2024-03-07T06:55:54.435Z,66.41
2024-03-07T06:56:57.656Z,66.46
2024-03-07T06:58:01.316Z,66.52
2024-03-07T06:59:06.123Z,66.37
2024-03-07T07:00:12.170Z,66.46
2024-03-07T07:01:17.307Z,66.49
2024-03-07T07:02:21.003Z,66.36
2024-03-07T07:03:25.165Z,66.37
2024-03-07T07:04:33.211Z,66.30
2024-03-07T07:05:36.744Z,66.01
2024-03-07T07:06:39.850Z,66.32
2024-03-07T07:07:42.891Z,66.25
2024-03-07T07:08:46.416Z,66.00
2024-03-07T07:09:52.823Z,65.77
2024-03-07T07:10:55.890Z,65.64
2024-03-07T07:11:58.862Z,65.69
2024-03-07T07:13:02.095Z,65.77
2024-03-07T07:14:04.942Z,66.00
2024-03-07T07:15:08.785Z,65.81
2024-03-07T07:16:11.712Z,65.68
2024-03-07T07:17:15.009Z,65.87
2024-03-07T07:18:18.322Z,65.65
2024-03-07T07:19:21.462Z,65.70
2024-03-07T07:20:25.391Z,65.73
2024-03-07T07:21:28.535Z,65.80
2024-03-07T07:22:34.123Z,65.56
2024-03-07T07:23:38.505Z,65.51
2024-03-07T07:24:41.521Z,65.58
2024-03-07T07:25:44.510Z,65.77
2024-03-07T07:26:47.668Z,65.36
2024-03-07T07:27:52.094Z,65.20
2024-03-07T07:28:55.419Z,65.07
2024-03-07T07:29:58.845Z,64.70
2024-03-07T07:31:02.298Z,64.49
2024-03-07T07:32:05.532Z,64.48
2024-03-07T07:33:08.726Z,64.37
2024-03-07T07:34:12.302Z,64.82
2024-03-07T07:35:16.323Z,64.64
2024-03-07T07:36:19.977Z,64.47
2024-03-07T07:37:24.001Z,64.57
2024-03-07T07:38:27.430Z,64.59
2024-03-07T07:39:30.442Z,64.47
2024-03-07T07:40:34.371Z,64.77
2024-03-07T07:41:37.249Z,64.61
2024-03-07T07:42:40.651Z,64.48
2024-03-07T07:43:44.260Z,64.26
2024-03-07T07:44:47.494Z,64.21
2024-03-07T07:45:50.502Z,64.20
2024-03-07T07:46:53.347Z,64.05
2024-03-07T07:47:56.915Z,64.14
2024-03-07T07:48:59.891Z,64.30
2024-03-07T07:50:03.753Z,63.74
2024-03-07T07:51:07.105Z,64.14
2024-03-07T07:52:10.534Z,64.22
2024-03-07T07:53:13.438Z,64.42
2024-03-07T07:54:16.326Z,64.21
2024-03-07T07:55:20.771Z,64.25
2024-03-07T07:56:26.313Z,64.43
2024-03-07T07:57:30.128Z,64.39
2024-03-07T07:58:33.019Z,64.32
2024-03-07T07:59:36.556Z,64.03
2024-03-07T08:00:39.639Z,63.85
2024-03-07T08:01:42.825Z,63.30
2024-03-07T08:02:45.945Z,63.23
2024-03-07T08:03:48.968Z,63.22
2024-03-07T08:04:51.806Z,63.14
2024-03-07T08:05:55.715Z,63.17
2024-03-07T08:06:58.866Z,63.45
2024-03-07T08:08:06.596Z,63.45
2024-03-07T08:09:10.947Z,63.46
2024-03-07T08:10:14.267Z,63.01
2024-03-07T08:11:17.257Z,62.77
2024-03-07T08:12:20.468Z,63.05
2024-03-07T08:13:23.510Z,62.52
2024-03-07T08:14:30.024Z,62.71
2024-03-07T08:15:33.198Z,62.71
2024-03-07T08:16:37.458Z,62.56
2024-03-07T08:17:44.232Z,62.33
2024-03-07T08:18:47.326Z,62.43
2024-03-07T08:19:50.822Z,62.87
2024-03-07T08:20:56.437Z,62.51
2024-03-07T08:22:00.756Z,62.39
2024-03-07T08:23:03.994Z,62.65
2024-03-07T08:24:12.213Z,62.17
2024-03-07T08:25:16.129Z,62.12
2024-03-07T08:26:19.359Z,61.94
2024-03-07T08:27:22.189Z,61.64
2024-03-07T08:28:25.281Z,61.64
2024-03-07T08:29:28.719Z,61.79
2024-03-07T08:30:32.056Z,61.20
2024-03-07T08:31:34.946Z,61.46
2024-03-07T08:32:38.279Z,61.57
2024-03-07T08:33:41.470Z,61.69
2024-03-07T08:34:44.568Z,61.54
2024-03-07T08:35:47.589Z,61.43
2024-03-07T08:36:50.508Z,61.05
2024-03-07T08:37:55.230Z,61.02
2024-03-07T08:38:58.747Z,60.97
2024-03-07T08:40:05.477Z,60.84
2024-03-07T08:41:08.988Z,60.94
2024-03-07T08:42:11.861Z,60.65
2024-03-07T08:43:15.574Z,60.58
2024-03-07T08:44:18.487Z,60.93
2024-03-07T08:45:21.655Z,61.06
2024-03-07T08:46:24.707Z,60.93
2024-03-07T08:47:29.435Z,61.02
2024-03-07T08:48:32.426Z,60.75
2024-03-07T08:49:35.268Z,60.87
2024-03-07T08:50:38.934Z,61.06
2024-03-07T08:51:42.530Z,60.82
2024-03-07T08:52:47.015Z,60.62
2024-03-07T08:53:51.405Z,60.97
2024-03-07T08:54:55.177Z,61.42
2024-03-07T08:56:01.390Z,62.03
2024-03-07T08:57:06.030Z,61.85
2024-03-07T08:58:10.043Z,62.22
2024-03-07T08:59:16.895Z,62.10
2024-03-07T09:00:23.946Z,62.04
2024-03-07T09:01:27.378Z,62.38
2024-03-07T09:02:30.279Z,62.36
2024-03-07T09:03:34.413Z,62.59
2024-03-07T09:04:37.823Z,62.23
2024-03-07T09:05:41.443Z,61.74
2024-03-07T09:06:47.229Z,60.93
2024-03-07T09:07:51.354Z,60.62
2024-03-07T09:08:54.311Z,60.81
2024-03-07T09:09:58.095Z,60.37
2024-03-07T09:11:01.041Z,60.51
2024-03-07T09:12:05.085Z,60.18
2024-03-07T09:13:08.321Z,60.23
2024-03-07T09:14:11.686Z,60.15
2024-03-07T09:15:17.470Z,60.18
2024-03-07T09:16:21.076Z,60.48
2024-03-07T09:17:24.332Z,60.68
2024-03-07T09:18:27.462Z,60.32
2024-03-07T09:19:30.637Z,60.50
2024-03-07T09:20:33.589Z,60.49
2024-03-07T09:21:36.513Z,60.53
2024-03-07T09:22:39.475Z,60.65
2024-03-07T09:23:42.628Z,60.93
2024-03-07T09:24:45.699Z,61.42
2024-03-07T09:25:48.755Z,61.11
2024-03-07T09:26:53.176Z,60.44
2024-03-07T09:27:57.132Z,60.02
2024-03-07T09:29:02.358Z,59.99
2024-03-07T09:30:10.593Z,59.93
2024-03-07T09:31:16.888Z,59.97
2024-03-07T09:32:23.158Z,60.32
2024-03-07T09:33:29.218Z,60.10
2024-03-07T09:34:32.508Z,60.37
2024-03-07T09:35:35.448Z,60.43
2024-03-07T09:36:38.364Z,60.58
2024-03-07T09:37:43.918Z,60.82
2024-03-07T09:38:47.043Z,60.86
2024-03-07T09:39:50.294Z,60.54
2024-03-07T09:40:53.918Z,60.63
2024-03-07T09:41:57.766Z,60.23
2024-03-07T09:43:02.110Z,60.18
2024-03-07T09:44:06.499Z,60.11
2024-03-07T09:45:15.847Z,59.58
2024-03-07T09:46:20.864Z,59.75
2024-03-07T09:47:24.151Z,59.55
2024-03-07T09:48:29.269Z,59.53
2024-03-07T09:49:37.140Z,60.15
2024-03-07T09:50:43.238Z,59.54
2024-03-07T09:51:55.736Z,58.70
2024-03-07T09:53:01.259Z,58.81
2024-03-07T09:54:04.792Z,58.32
2024-03-07T09:55:09.498Z,57.80
2024-03-07T09:56:15.119Z,56.92
2024-03-07T09:57:18.815Z,56.64
2024-03-07T09:58:22.805Z,56.75
2024-03-07T09:59:28.891Z,57.21
2024-03-07T10:00:33.785Z,57.63
2024-03-07T10:01:38.891Z,57.31
2024-03-07T10:02:45.711Z,57.74
2024-03-07T10:03:54.065Z,57.52
2024-03-07T10:04:59.603Z,57.55
2024-03-07T10:06:02.560Z,56.76
2024-03-07T10:07:05.598Z,56.55
2024-03-07T10:08:09.164Z,56.70
2024-03-07T10:09:16.255Z,57.02
2024-03-07T10:10:20.583Z,57.32
2024-03-07T10:11:25.782Z,57.31
2024-03-07T10:12:28.900Z,57.19
2024-03-07T10:13:31.913Z,57.15
2024-03-07T10:14:34.735Z,56.36
2024-03-07T10:15:38.659Z,56.10
2024-03-07T10:16:42.520Z,56.56
2024-03-07T10:17:47.727Z,56.52
2024-03-07T10:18:51.562Z,55.98
2024-03-07T10:19:55.837Z,56.34
2024-03-07T10:20:59.768Z,56.57
2024-03-07T10:22:07.688Z,56.11
2024-03-07T10:23:11.591Z,56.35
2024-03-07T10:24:15.433Z,56.09
2024-03-07T10:25:20.626Z,55.92
2024-03-07T10:26:25.022Z,56.34
2024-03-07T10:27:29.750Z,56.63
2024-03-07T10:28:34.681Z,56.29
2024-03-07T10:29:40.594Z,56.17
2024-03-07T10:30:49.062Z,56.34
2024-03-07T10:31:57.808Z,55.71
2024-03-07T10:33:08.642Z,56.05
2024-03-07T10:34:12.936Z,55.56
2024-03-07T10:35:22.626Z,55.49
2024-03-07T10:36:26.374Z,55.03
2024-03-07T10:37:29.422Z,55.19
2024-03-07T10:38:32.365Z,55.47
2024-03-07T10:39:35.295Z,55.42
2024-03-07T10:40:42.041Z,55.21
2024-03-07T10:41:50.484Z,55.14
2024-03-07T10:42:58.812Z,55.17
2024-03-07T10:44:05.193Z,55.30
2024-03-07T10:45:12.108Z,55.12
2024-03-07T10:46:19.164Z,54.32
2024-03-07T10:47:22.498Z,54.97
2024-03-07T10:48:32.833Z,55.39
2024-03-07T10:49:49.769Z,55.12
2024-03-07T10:51:07.263Z,54.58
2024-03-07T10:52:27.506Z,54.73
2024-03-07T10:53:39.592Z,54.46
2024-03-07T10:55:13.525Z,54.87
2024-03-07T10:56:48.108Z,55.64
2024-03-07T10:57:56.737Z,55.59
2024-03-07T10:59:12.636Z,54.86
2024-03-07T11:00:36.744Z,54.87
2024-03-07T11:01:52.492Z,54.55
2024-03-07T11:02:58.041Z,54.58
2024-03-07T11:04:05.360Z,53.97
2024-03-07T11:05:13.204Z,54.05
2024-03-07T11:06:17.191Z,54.42
2024-03-07T11:07:23.735Z,54.49
2024-03-07T11:08:28.072Z,55.19
2024-03-07T11:09:34.910Z,54.36
2024-03-07T11:10:39.249Z,53.44
2024-03-07T11:11:44.704Z,53.83
2024-03-07T11:12:52.202Z,53.72
2024-03-07T11:14:00.133Z,52.66
2024-03-07T11:15:07.336Z,52.21
2024-03-07T11:16:11.503Z,51.80
2024-03-07T11:17:16.195Z,51.52
2024-03-07T11:18:19.364Z,50.89
2024-03-07T11:19:37.533Z,50.95
2024-03-07T11:20:41.876Z,50.35
2024-03-07T11:21:45.035Z,50.34
2024-03-07T11:22:48.654Z,49.47
2024-03-07T11:23:54.176Z,49.03
2024-03-07T11:25:08.381Z,48.96
2024-03-07T11:26:14.870Z,49.21
2024-03-07T11:27:18.430Z,49.68
2024-03-07T11:28:30.317Z,49.29
2024-03-07T11:29:44.385Z,47.78
2024-03-07T11:30:47.726Z,47.06
2024-03-07T11:31:54.718Z,47.34
2024-03-07T11:32:59.187Z,47.25
2024-03-07T11:34:20.817Z,46.79
2024-03-07T11:35:36.851Z,46.23
2024-03-07T11:36:45.943Z,46.62
2024-03-07T11:37:50.061Z,45.63
2024-03-07T11:38:53.982Z,45.58
2024-03-07T11:39:59.201Z,45.19
2024-03-07T11:41:03.716Z,45.36
2024-03-07T11:42:07.688Z,45.52
2024-03-07T11:43:13.742Z,45.31
2024-03-07T11:44:16.806Z,45.03
2024-03-07T11:45:29.182Z,44.79
2024-03-07T11:46:33.234Z,44.48
2024-03-07T11:47:40.585Z,43.90
2024-03-07T11:48:44.250Z,43.67
2024-03-07T11:49:50.294Z,42.87
2024-03-07T11:50:56.185Z,43.10
2024-03-07T11:52:00.356Z,42.83
2024-03-07T11:53:08.006Z,42.11
2024-03-07T11:54:15.753Z,43.13
2024-03-07T11:55:20.320Z,42.57
2024-03-07T11:56:23.432Z,42.64
2024-03-07T11:57:34.181Z,42.73
2024-03-07T11:58:42.978Z,43.24
2024-03-07T11:59:53.783Z,42.71
2024-03-07T12:00:59.576Z,41.94
2024-03-07T12:02:02.664Z,42.41
2024-03-07T12:03:08.308Z,43.15
2024-03-07T12:04:17.083Z,43.35
2024-03-07T12:05:20.966Z,43.85
2024-03-07T12:06:23.990Z,43.18
2024-03-07T12:07:27.955Z,43.42
2024-03-07T12:08:31.026Z,42.73
2024-03-07T12:09:37.007Z,42.76
2024-03-07T12:10:47.347Z,42.60
2024-03-07T12:11:54.113Z,42.24
2024-03-07T12:12:57.849Z,41.76
2024-03-07T12:14:01.109Z,41.55
2024-03-07T12:15:10.855Z,41.37
2024-03-07T12:16:13.992Z,41.05
2024-03-07T12:17:17.514Z,41.31
2024-03-07T12:18:23.951Z,42.14
2024-03-07T12:19:28.417Z,42.21
2024-03-07T12:20:32.429Z,41.75
2024-03-07T12:21:37.622Z,41.36
2024-03-07T12:22:44.279Z,40.58
2024-03-07T12:23:47.810Z,39.49
2024-03-07T12:25:04.726Z,39.64
2024-03-07T12:26:07.696Z,39.05
2024-03-07T12:27:13.566Z,39.30
2024-03-07T12:28:19.601Z,40.24
2024-03-07T12:29:26.916Z,40.94
2024-03-07T12:30:34.057Z,40.50
2024-03-07T12:31:41.268Z,40.19
2024-03-07T12:32:50.461Z,39.79
2024-03-07T12:33:54.388Z,40.03
2024-03-07T12:34:57.831Z,39.93
2024-03-07T12:36:11.700Z,39.97
2024-03-07T12:37:17.366Z,38.84
2024-03-07T12:38:24.038Z,38.13
2024-03-07T12:39:27.342Z,38.22
2024-03-07T12:40:35.010Z,37.83
2024-03-07T12:41:37.965Z,37.52
2024-03-07T12:42:40.817Z,37.56
2024-03-07T12:43:44.883Z,37.65
2024-03-07T12:44:48.336Z,37.42
2024-03-07T12:45:53.682Z,37.19
2024-03-07T12:46:58.291Z,37.18
2024-03-07T12:48:05.597Z,36.15
2024-03-07T12:49:08.728Z,36.01
2024-03-07T12:50:12.524Z,36.86
2024-03-07T12:51:19.782Z,37.82
2024-03-07T12:52:24.636Z,37.15
2024-03-07T12:53:27.605Z,37.18
2024-03-07T12:54:30.622Z,36.88
2024-03-07T12:55:33.616Z,37.11
2024-03-07T12:56:38.419Z,36.47
2024-03-07T12:57:41.988Z,36.91
2024-03-07T12:58:47.706Z,37.15
2024-03-07T12:59:52.124Z,37.04
2024-03-07T13:00:59.563Z,36.71
2024-03-07T13:02:03.914Z,37.06
2024-03-07T13:03:07.083Z,36.72
2024-03-07T13:04:11.436Z,36.03
2024-03-07T13:05:23.524Z,36.42
2024-03-07T13:06:30.626Z,35.82
2024-03-07T13:07:33.712Z,36.25
2024-03-07T13:08:36.674Z,35.93
2024-03-07T13:09:42.000Z,35.49
2024-03-07T13:10:48.541Z,36.00
2024-03-07T13:11:55.206Z,36.05
2024-03-07T13:12:58.409Z,35.83
2024-03-07T13:14:01.410Z,35.47
2024-03-07T13:15:07.855Z,34.51
2024-03-07T13:16:12.508Z,35.28
2024-03-07T13:17:15.479Z,34.94
2024-03-07T13:18:18.926Z,35.05
2024-03-07T13:19:22.242Z,35.13
2024-03-07T13:20:27.618Z,35.41
2024-03-07T13:21:31.835Z,35.17
2024-03-07T13:22:35.023Z,34.37
2024-03-07T13:23:40.733Z,34.50
2024-03-07T13:24:45.718Z,34.21
2024-03-07T13:25:50.095Z,33.89
2024-03-07T13:26:54.716Z,34.25
2024-03-07T13:28:17.962Z,34.50
2024-03-07T13:29:25.516Z,34.11
2024-03-07T13:30:29.206Z,33.99
2024-03-07T13:31:32.393Z,33.34
2024-03-07T13:32:35.498Z,33.71
2024-03-07T13:33:39.117Z,34.03
2024-03-07T13:34:42.088Z,34.00
2024-03-07T13:35:45.067Z,33.95
2024-03-07T13:36:47.959Z,33.86
2024-03-07T13:37:51.739Z,33.96
2024-03-07T13:38:55.609Z,33.60
2024-03-07T13:40:00.250Z,33.60
2024-03-07T13:41:06.404Z,33.27
2024-03-07T13:42:12.688Z,32.95
2024-03-07T13:43:16.274Z,32.92
2024-03-07T13:44:20.886Z,32.66
2024-03-07T13:45:29.522Z,33.02
2024-03-07T13:46:33.815Z,33.28
2024-03-07T13:47:37.264Z,33.03
2024-03-07T13:48:43.472Z,32.98
2024-03-07T13:49:46.793Z,33.16
2024-03-07T13:50:59.477Z,33.18
2024-03-07T13:52:12.041Z,32.67
2024-03-07T13:53:15.095Z,33.43
2024-03-07T13:54:31.839Z,33.45
2024-03-07T13:56:02.645Z,33.21